createdAt,value
2022-10-04T00:01:13.519Z,36.80
2022-10-04T00:03:49.969Z,34.28
2022-10-04T00:06:24.535Z,32.55
2022-10-04T00:09:13.272Z,32.20
2022-10-04T00:11:45.946Z,31.52
2022-10-04T00:14:29.617Z,33.00
2022-10-04T00:16:59.423Z,33.83
2022-10-04T00:19:45.172Z,30.13
2022-10-04T00:22:19.918Z,33.28
2022-10-04T00:25:13.650Z,36.20
2022-10-04T00:28:43.109Z,30.83
2022-10-04T00:31:10.429Z,32.35
2022-10-04T00:33:54.872Z,31.77
2022-10-04T00:36:25.011Z,29.13
2022-10-04T00:39:37.991Z,35.50
2022-10-04T00:42:19.357Z,31.58
2022-10-04T00:44:58.602Z,35.22
2022-10-04T00:48:05.543Z,32.95
2022-10-04T00:54:11.845Z,35.83
2022-10-04T00:56:59.722Z,31.60
2022-10-04T01:00:14.449Z,32.63
2022-10-04T01:03:11.044Z,34.83
2022-10-04T01:05:50.257Z,34.75
2022-10-04T01:08:35.190Z,31.65
2022-10-04T01:11:38.567Z,32.63
2022-10-04T01:14:25.232Z,36.70
2022-10-04T01:16:52.765Z,36.75
2022-10-04T01:19:32.102Z,35.53
2022-10-04T01:22:12.600Z,30.42
2022-10-04T01:24:44.028Z,34.22
2022-10-04T01:27:38.958Z,34.78
2022-10-04T01:30:17.682Z,36.50
2022-10-04T01:32:45.464Z,33.13
2022-10-04T01:35:15.572Z,40.03
2022-10-04T01:37:42.888Z,34.53
2022-10-04T01:40:11.068Z,31.65
2022-10-04T01:42:51.492Z,30.67
2022-10-04T01:45:31.340Z,35.13
2022-10-04T01:48:09.108Z,33.45
2022-10-04T01:51:17.136Z,31.13
2022-10-04T01:54:11.679Z,33.38
2022-10-04T01:57:23.425Z,30.85
2022-10-04T02:00:04.494Z,31.75
2022-10-04T02:03:13.963Z,32.25
2022-10-04T02:05:51.235Z,34.50
2022-10-04T02:08:29.314Z,35.28
2022-10-04T02:10:57.761Z,33.42
2022-10-04T02:13:29.412Z,34.03
2022-10-04T02:15:58.518Z,33.60
2022-10-04T02:18:27.170Z,30.20
2022-10-04T02:20:55.121Z,30.83
2022-10-04T02:23:24.080Z,29.75
2022-10-04T02:25:51.986Z,26.98
2022-10-04T02:28:19.440Z,29.67
2022-10-04T02:31:09.588Z,27.30
2022-10-04T02:33:44.935Z,27.00
2022-10-04T02:36:13.195Z,29.10
2022-10-04T02:39:09.217Z,28.00
2022-10-04T02:41:55.653Z,25.90
2022-10-04T02:44:51.410Z,24.23
2022-10-04T02:47:26.136Z,21.75
2022-10-04T02:50:20.909Z,21.10
2022-10-04T02:52:58.490Z,26.73
2022-10-04T02:55:30.115Z,19.67
2022-10-04T02:57:59.879Z,21.13
2022-10-04T03:00:32.698Z,19.58
2022-10-04T03:03:27.908Z,23.13
2022-10-04T03:06:17.885Z,18.77
2022-10-04T03:08:59.040Z,23.73
2022-10-04T03:11:35.281Z,29.80
2022-10-04T03:14:10.252Z,22.05
2022-10-04T03:16:42.457Z,18.48
2022-10-04T03:19:13.817Z,19.35
2022-10-04T03:21:45.377Z,19.30
2022-10-04T03:24:31.518Z,24.70
2022-10-04T03:27:04.526Z,21.70
2022-10-04T03:29:34.003Z,23.67
2022-10-04T03:32:04.505Z,26.48
2022-10-04T03:34:39.941Z,23.85
2022-10-04T03:37:14.983Z,19.92
2022-10-04T03:39:55.318Z,25.50
2022-10-04T03:42:34.773Z,24.80
2022-10-04T03:45:15.605Z,21.17
2022-10-04T03:47:48.477Z,25.60
2022-10-04T03:50:34.158Z,30.77
2022-10-04T03:53:43.213Z,24.80
2022-10-04T03:56:29.949Z,27.85
2022-10-04T03:58:58.249Z,29.30
2022-10-04T04:01:44.391Z,27.75
2022-10-04T04:04:58.203Z,30.38
2022-10-04T04:07:38.641Z,32.45
2022-10-04T04:10:32.046Z,31.90
2022-10-04T04:13:27.124Z,25.88
2022-10-04T04:15:57.411Z,23.02
2022-10-04T04:18:30.721Z,26.80
2022-10-04T04:21:02.200Z,28.38
2022-10-04T04:23:35.684Z,23.70
2022-10-04T04:26:17.392Z,27.02
2022-10-04T04:29:05.186Z,27.08
2022-10-04T04:31:53.146Z,26.75
2022-10-04T04:34:32.118Z,27.38
2022-10-04T04:37:03.633Z,23.25
2022-10-04T04:39:40.793Z,23.42
2022-10-04T04:42:10.866Z,23.55
2022-10-04T04:44:57.072Z,20.75
2022-10-04T04:47:33.784Z,23.38
2022-10-04T04:50:35.616Z,18.88
2022-10-04T04:53:27.212Z,21.30
2022-10-04T04:56:04.330Z,23.33
2022-10-04T04:58:43.558Z,19.90
2022-10-04T05:01:33.371Z,18.75
2022-10-04T05:04:13.851Z,20.38
2022-10-04T05:07:06.413Z,21.25
2022-10-04T05:09:38.459Z,21.25
2022-10-04T05:12:15.416Z,19.77
2022-10-04T05:14:53.284Z,18.65
2022-10-04T05:17:26.607Z,24.80
2022-10-04T05:19:59.808Z,14.77
2022-10-04T05:22:28.857Z,13.85
2022-10-04T05:25:09.848Z,16.88
2022-10-04T05:27:44.934Z,18.40
2022-10-04T05:31:00.953Z,17.70
2022-10-04T05:33:52.252Z,15.93
2022-10-04T05:37:43.153Z,18.10
2022-10-04T05:40:13.099Z,24.67
2022-10-04T05:42:47.846Z,17.70
2022-10-04T05:45:23.170Z,18.57
2022-10-04T05:47:54.802Z,17.27
2022-10-04T05:50:41.805Z,17.02
2022-10-04T05:53:38.622Z,23.48
2022-10-04T05:56:30.546Z,18.33
2022-10-04T05:59:43.436Z,18.48
2022-10-04T06:03:01.877Z,18.55
2022-10-04T06:05:54.126Z,18.75
2022-10-04T06:09:08.514Z,17.92
2022-10-04T06:12:30.048Z,18.98
2022-10-04T06:15:27.932Z,15.60
2022-10-04T06:18:40.117Z,16.02
2022-10-04T06:21:26.771Z,22.00
2022-10-04T06:24:19.083Z,18.75
2022-10-04T06:27:02.783Z,16.23
2022-10-04T06:29:41.057Z,18.02
2022-10-04T06:32:42.001Z,18.63
2022-10-04T06:35:36.809Z,19.15
2022-10-04T06:38:33.439Z,15.40
2022-10-04T06:41:21.755Z,15.05
2022-10-04T06:44:56.153Z,16.25
2022-10-04T06:48:08.862Z,15.90
2022-10-04T06:55:41.657Z,14.63
2022-10-04T06:58:19.289Z,14.63
2022-10-04T07:00:58.424Z,14.02
2022-10-04T07:04:09.091Z,13.95
2022-10-04T07:07:35.385Z,14.32
2022-10-04T07:10:50.689Z,15.10
2022-10-04T07:13:41.070Z,29.23
2022-10-04T07:16:17.393Z,16.00
2022-10-04T07:18:55.849Z,18.55
2022-10-04T07:21:33.383Z,12.70
2022-10-04T07:24:03.718Z,16.85
2022-10-04T07:26:49.513Z,17.10
2022-10-04T07:29:28.211Z,16.27
2022-10-04T07:32:11.281Z,16.00
2022-10-04T07:35:48.875Z,22.60
2022-10-04T07:38:26.991Z,21.48
2022-10-04T07:41:12.813Z,26.65
2022-10-04T07:44:39.478Z,17.83
2022-10-04T07:47:24.322Z,25.50
2022-10-04T07:49:53.927Z,23.75
2022-10-04T07:52:52.573Z,23.30
2022-10-04T07:55:56.386Z,27.55
2022-10-04T07:59:03.597Z,24.75
2022-10-04T08:01:48.329Z,21.85
2022-10-04T08:04:44.025Z,27.67
2022-10-04T08:07:27.321Z,24.57
2022-10-04T08:10:18.065Z,27.83
2022-10-04T08:13:14.383Z,24.30
2022-10-04T08:15:44.558Z,21.92
2022-10-04T08:18:32.368Z,22.08
2022-10-04T08:21:09.797Z,23.00
2022-10-04T08:24:35.881Z,24.35
2022-10-04T08:28:03.609Z,20.38
2022-10-04T08:30:54.357Z,27.17
2022-10-04T08:34:21.928Z,22.33
2022-10-04T08:37:25.461Z,23.52
2022-10-04T08:40:18.256Z,25.05
2022-10-04T08:43:13.253Z,31.10
2022-10-04T08:46:13.845Z,31.00
2022-10-04T08:49:23.973Z,27.67
2022-10-04T08:52:08.937Z,26.30
2022-10-04T08:55:35.071Z,26.80
2022-10-04T08:58:23.662Z,26.35
2022-10-04T09:01:16.920Z,29.60
2022-10-04T09:04:30.433Z,22.67
2022-10-04T09:07:50.012Z,31.45
2022-10-04T09:10:57.286Z,23.33
2022-10-04T09:14:07.982Z,22.10
2022-10-04T09:16:47.865Z,21.67
2022-10-04T09:19:52.105Z,18.50
2022-10-04T09:22:50.031Z,24.08
2022-10-04T09:25:35.382Z,19.02
2022-10-04T09:28:47.065Z,19.05
2022-10-04T09:31:42.948Z,18.13
2022-10-04T09:34:57.923Z,22.65
2022-10-04T09:38:11.177Z,20.92
2022-10-04T09:41:34.409Z,18.80
2022-10-04T09:44:46.032Z,21.23
2022-10-04T09:47:43.865Z,20.35
2022-10-04T09:50:59.153Z,19.77
2022-10-04T09:54:15.639Z,18.10
2022-10-04T09:57:19.812Z,23.08
2022-10-04T10:00:33.244Z,23.58
2022-10-04T10:04:07.700Z,19.30
2022-10-04T10:07:30.738Z,22.02
2022-10-04T10:11:13.641Z,19.35
2022-10-04T10:14:25.910Z,16.92
2022-10-04T10:17:40.128Z,19.98
2022-10-04T10:20:55.912Z,23.08
2022-10-04T10:23:56.113Z,20.35
2022-10-04T10:26:50.049Z,20.55
2022-10-04T10:30:07.256Z,19.95
2022-10-04T10:36:17.124Z,22.83
2022-10-04T10:39:09.818Z,19.92
2022-10-04T10:41:56.197Z,19.88
2022-10-04T10:45:10.664Z,22.80
2022-10-04T10:48:33.692Z,20.02
2022-10-04T10:51:20.523Z,19.63
2022-10-04T10:54:12.002Z,17.77
2022-10-04T10:57:18.490Z,25.02
2022-10-04T11:00:44.398Z,18.08
2022-10-04T11:03:53.267Z,22.25
2022-10-04T11:06:48.908Z,21.95
2022-10-04T11:09:45.599Z,23.00
2022-10-04T11:12:24.546Z,20.00
2022-10-04T11:15:38.432Z,19.60
2022-10-04T11:19:16.055Z,23.17
2022-10-04T11:22:24.297Z,24.17
2022-10-04T11:25:25.150Z,23.35
2022-10-04T11:28:37.224Z,26.33
2022-10-04T11:31:31.341Z,28.55
2022-10-04T11:34:25.580Z,25.10
2022-10-04T11:37:22.875Z,28.73
2022-10-04T11:40:34.420Z,27.17
2022-10-04T11:44:00.452Z,26.80
2022-10-04T11:46:52.645Z,28.58
2022-10-04T11:49:54.002Z,31.63
2022-10-04T11:52:49.349Z,30.67
2022-10-04T11:55:57.248Z,31.80
2022-10-04T11:59:06.529Z,32.20
2022-10-04T12:02:04.488Z,34.03
2022-10-04T12:05:07.956Z,37.25
2022-10-04T12:08:18.733Z,33.22
2022-10-04T12:11:21.557Z,34.17
2022-10-04T12:14:49.380Z,37.95
2022-10-04T12:18:06.279Z,38.17
2022-10-04T12:21:33.456Z,37.15
2022-10-04T12:24:28.209Z,38.80
2022-10-04T12:27:16.276Z,37.45
2022-10-04T12:30:32.626Z,34.78
2022-10-04T12:33:41.905Z,39.95
2022-10-04T12:36:30.745Z,36.70
2022-10-04T12:39:28.714Z,37.60
2022-10-04T12:42:58.399Z,36.13
2022-10-04T12:46:09.854Z,37.78
2022-10-04T12:49:17.063Z,38.17
2022-10-04T12:52:11.737Z,35.78
2022-10-04T12:55:42.932Z,32.65
2022-10-04T12:58:39.138Z,30.42
2022-10-04T13:06:59.398Z,34.65
2022-10-04T13:10:24.080Z,38.60
2022-10-04T13:13:51.592Z,35.80
2022-10-04T13:20:20.217Z,33.90
2022-10-04T13:23:24.012Z,32.13
2022-10-04T13:26:30.072Z,32.40
2022-10-04T13:29:33.625Z,31.95
2022-10-04T13:32:35.112Z,33.03
2022-10-04T13:35:15.221Z,32.88
2022-10-04T13:38:13.973Z,28.60
2022-10-04T13:41:04.318Z,29.63
2022-10-04T13:44:17.884Z,30.65
2022-10-04T13:47:04.939Z,31.45
2022-10-04T13:50:17.348Z,31.23
2022-10-04T13:53:51.795Z,31.20
2022-10-04T13:57:29.679Z,27.58
2022-10-04T14:00:17.112Z,27.35
2022-10-04T14:04:07.493Z,29.40
2022-10-04T14:07:18.188Z,31.20
2022-10-04T14:10:22.270Z,29.92
2022-10-04T14:12:49.342Z,26.83
2022-10-04T14:15:56.903Z,28.13
2022-10-04T14:18:49.447Z,26.65
2022-10-04T14:21:47.251Z,25.25
2022-10-04T14:25:12.469Z,25.15
2022-10-04T14:28:38.353Z,24.33
2022-10-04T14:31:42.482Z,22.83
2022-10-04T14:34:55.736Z,24.85
2022-10-04T14:38:10.767Z,25.15
2022-10-04T14:41:08.579Z,22.25
2022-10-04T14:43:58.485Z,26.55
2022-10-04T14:46:57.338Z,22.98
2022-10-04T14:50:23.350Z,25.52
2022-10-04T14:53:49.710Z,22.35
2022-10-04T14:57:24.931Z,24.40
2022-10-04T15:00:48.343Z,21.80
2022-10-04T15:03:40.698Z,21.20
2022-10-04T15:06:22.794Z,24.80
2022-10-04T15:09:31.423Z,26.50
2022-10-04T15:13:09.994Z,24.48
2022-10-04T15:16:42.473Z,21.63
2022-10-04T15:19:21.711Z,20.38
2022-10-04T15:22:27.169Z,22.02
2022-10-04T15:24:54.763Z,20.55
2022-10-04T15:27:34.146Z,23.90
2022-10-04T15:30:30.714Z,24.25
2022-10-04T15:33:34.614Z,21.13
2022-10-04T15:36:01.754Z,22.73
2022-10-04T15:39:02.751Z,21.95
2022-10-04T15:42:12.740Z,24.25
2022-10-04T15:45:18.712Z,23.33
2022-10-04T15:48:11.200Z,19.65
2022-10-04T15:51:08.883Z,25.65
2022-10-04T15:54:22.009Z,23.30
2022-10-04T15:56:55.694Z,19.95
2022-10-04T15:59:53.595Z,20.67
2022-10-04T16:03:07.474Z,21.40
2022-10-04T16:06:28.305Z,24.02
2022-10-04T16:09:47.876Z,22.20
2022-10-04T16:13:15.884Z,19.30
2022-10-04T16:15:51.059Z,22.05
2022-10-04T16:18:52.380Z,26.30
2022-10-04T16:21:49.341Z,22.67
2022-10-04T16:24:22.572Z,28.25
2022-10-04T16:26:54.797Z,23.48
2022-10-04T16:30:26.201Z,24.90
2022-10-04T16:32:58.711Z,24.13
2022-10-04T16:36:04.468Z,22.33
2022-10-04T16:39:15.186Z,22.70
2022-10-04T16:41:55.113Z,26.65
2022-10-04T16:44:40.583Z,26.48
2022-10-04T16:47:39.003Z,32.42
2022-10-04T16:50:13.038Z,25.92
2022-10-04T16:52:58.267Z,36.28
2022-10-04T16:55:51.024Z,29.17
2022-10-04T16:58:27.304Z,29.13
2022-10-04T17:01:22.158Z,27.33
2022-10-04T17:04:43.893Z,29.10
2022-10-04T17:07:13.567Z,34.53
2022-10-04T17:09:48.197Z,31.35
2022-10-04T17:13:10.425Z,36.20
2022-10-04T17:16:35.909Z,33.97
2022-10-04T17:19:33.868Z,37.75
2022-10-04T17:22:30.366Z,39.40
2022-10-04T17:25:43.996Z,40.13
2022-10-04T17:28:56.274Z,42.33
2022-10-04T17:31:48.168Z,36.72
2022-10-04T17:35:22.691Z,40.20
2022-10-04T17:38:18.848Z,36.42
2022-10-04T17:41:35.425Z,39.80
2022-10-04T17:44:44.642Z,43.45
2022-10-04T17:47:27.336Z,36.03
2022-10-04T17:50:32.786Z,40.25
2022-10-04T17:53:30.753Z,43.33
2022-10-04T17:56:03.055Z,42.50
2022-10-04T17:58:47.464Z,40.20
2022-10-04T18:01:29.203Z,43.20
2022-10-04T18:04:27.977Z,40.65
2022-10-04T18:07:13.160Z,43.75
2022-10-04T18:09:53.047Z,45.97
2022-10-04T18:12:59.940Z,44.38
2022-10-04T18:15:51.259Z,49.67
2022-10-04T18:18:25.935Z,50.35
2022-10-04T18:21:23.018Z,48.33
2022-10-04T18:24:18.424Z,45.88
2022-10-04T18:27:15.366Z,53.47
2022-10-04T18:30:01.389Z,45.30
2022-10-04T18:32:28.408Z,46.22
2022-10-04T18:35:02.417Z,49.83
2022-10-04T18:37:38.006Z,49.10
2022-10-04T18:40:33.901Z,41.53
2022-10-04T18:43:04.389Z,47.03
2022-10-04T18:45:34.287Z,50.28
2022-10-04T18:48:15.649Z,47.17
2022-10-04T18:50:45.209Z,45.83
2022-10-04T18:53:44.031Z,46.25
2022-10-04T18:56:12.389Z,52.05
2022-10-04T19:00:03.078Z,48.72
2022-10-04T19:03:16.953Z,49.05
2022-10-04T19:06:04.119Z,54.15
2022-10-04T19:08:50.578Z,56.92
2022-10-04T19:11:44.442Z,51.50
2022-10-04T19:14:46.037Z,48.15
2022-10-04T19:17:36.757Z,55.33
2022-10-04T19:21:16.967Z,57.35
2022-10-04T19:24:16.093Z,51.15
2022-10-04T19:27:21.661Z,51.97
2022-10-04T19:30:26.407Z,54.83
2022-10-04T19:33:48.218Z,60.58
2022-10-04T19:36:58.577Z,57.65
2022-10-04T19:40:44.232Z,54.13
2022-10-04T19:43:42.948Z,61.92
2022-10-04T19:47:16.115Z,60.78
2022-10-04T19:50:03.704Z,60.55
2022-10-04T19:52:47.561Z,60.42
2022-10-04T19:55:28.463Z,59.97
2022-10-04T19:58:24.303Z,58.88
2022-10-04T20:00:51.737Z,57.80
2022-10-04T20:03:19.254Z,59.45
2022-10-04T20:05:53.411Z,60.50
2022-10-04T20:08:58.191Z,57.60
2022-10-04T20:11:49.614Z,57.45
2022-10-04T20:14:21.423Z,60.85
2022-10-04T20:16:49.314Z,60.50
2022-10-04T20:19:28.920Z,62.88
2022-10-04T20:22:29.418Z,62.08
2022-10-04T20:24:57.852Z,61.90
2022-10-04T20:27:28.529Z,60.78
2022-10-04T20:29:58.964Z,62.70
2022-10-04T20:32:36.249Z,65.82
2022-10-04T20:36:01.697Z,56.78
2022-10-04T20:38:53.061Z,60.85
2022-10-04T20:41:29.384Z,64.78
2022-10-04T20:44:06.911Z,57.45
2022-10-04T20:46:38.686Z,62.95
2022-10-04T20:49:16.785Z,60.00
2022-10-04T20:51:49.538Z,62.05
2022-10-04T20:54:21.730Z,61.92
2022-10-04T20:56:51.468Z,64.15
2022-10-04T20:59:18.912Z,66.28
2022-10-04T21:02:12.242Z,68.20
2022-10-04T21:04:44.262Z,70.68
2022-10-04T21:07:22.429Z,64.68
2022-10-04T21:09:50.758Z,72.13
2022-10-04T21:12:35.282Z,65.25
2022-10-04T21:15:19.041Z,65.07
2022-10-04T21:18:07.191Z,69.88
2022-10-04T21:20:51.894Z,68.82
2022-10-04T21:23:33.705Z,67.75
2022-10-04T21:26:22.477Z,71.05
2022-10-04T21:28:56.912Z,72.68
2022-10-04T21:31:25.055Z,73.28
2022-10-04T21:33:52.232Z,77.22
2022-10-04T21:36:19.406Z,79.97
2022-10-04T21:38:46.517Z,78.63
2022-10-04T21:41:13.706Z,77.85
2022-10-04T21:43:40.807Z,79.97
2022-10-04T21:46:08.132Z,73.40
2022-10-04T21:48:35.385Z,76.05
2022-10-04T21:51:02.592Z,76.65
2022-10-04T21:53:29.779Z,77.53
2022-10-04T21:55:56.969Z,79.22
2022-10-04T21:58:24.273Z,81.03
2022-10-04T22:00:51.641Z,87.43
2022-10-04T22:03:18.881Z,86.78
2022-10-04T22:05:46.086Z,82.47
2022-10-04T22:08:13.274Z,90.25
2022-10-04T22:10:40.388Z,89.57
2022-10-04T22:13:07.674Z,92.63
2022-10-04T22:15:35.272Z,92.45
2022-10-04T22:18:02.606Z,91.25
2022-10-04T22:20:30.779Z,88.25
2022-10-04T22:22:59.717Z,92.10
2022-10-04T22:25:28.312Z,93.82
2022-10-04T22:27:55.795Z,91.40
2022-10-04T22:30:31.175Z,92.50
2022-10-04T22:33:00.845Z,90.32
2022-10-04T22:35:31.903Z,90.25
2022-10-04T22:38:00.117Z,87.20
2022-10-04T22:40:29.460Z,91.57
2022-10-04T22:43:00.677Z,95.53
2022-10-04T22:45:33.309Z,89.63
2022-10-04T22:48:10.869Z,93.45
2022-10-04T22:50:38.845Z,90.18
2022-10-04T22:53:20.576Z,93.80
2022-10-04T22:55:55.829Z,85.88
2022-10-04T22:58:23.072Z,94.03
2022-10-04T23:00:50.530Z,90.03
2022-10-04T23:03:34.288Z,93.22
2022-10-04T23:06:03.096Z,96.18
2022-10-04T23:08:30.932Z,92.25
2022-10-04T23:11:00.629Z,94.60
2022-10-04T23:13:28.129Z,100.90
2022-10-04T23:16:13.563Z,94.60
2022-10-04T23:18:41.576Z,103.38
2022-10-04T23:21:39.926Z,97.07
2022-10-04T23:24:25.326Z,93.35
2022-10-04T23:26:56.889Z,99.45
2022-10-04T23:29:34.847Z,97.75
2022-10-04T23:32:12.547Z,98.97
2022-10-04T23:34:47.109Z,92.70
2022-10-04T23:37:25.993Z,94.03
2022-10-04T23:39:53.442Z,97.93
2022-10-04T23:42:29.732Z,90.97
2022-10-04T23:45:01.898Z,90.63
2022-10-04T23:47:36.786Z,90.95
2022-10-04T23:50:34.981Z,89.25
2022-10-04T23:53:07.403Z,93.18
2022-10-04T23:55:39.148Z,89.50
2022-10-04T23:58:19.270Z,93.45
